createdAt,value
2018-05-29T00:00:38.764Z,82.46
2018-05-29T00:01:38.942Z,82.27
2018-05-29T00:02:39.120Z,82.27
2018-05-29T00:03:39.300Z,82.08
2018-05-29T00:04:39.483Z,82.75
2018-05-29T00:05:39.662Z,82.75
2018-05-29T00:06:39.844Z,83.52
2018-05-29T00:07:40.021Z,83.72
2018-05-29T00:08:40.192Z,83.81
2018-05-29T00:09:40.419Z,84.25
2018-05-29T00:10:40.590Z,83.96
2018-05-29T00:11:40.768Z,84.16
2018-05-29T00:12:40.953Z,83.86
2018-05-29T00:13:41.124Z,83.86
2018-05-29T00:14:41.303Z,84.06
2018-05-29T00:15:41.493Z,84.44
2018-05-29T00:16:41.677Z,84.44
2018-05-29T00:17:41.860Z,84.34
2018-05-29T00:18:42.035Z,84.34
2018-05-29T00:19:42.216Z,84.34
2018-05-29T00:20:42.395Z,84.63
2018-05-29T00:21:42.569Z,84.73
2018-05-29T00:22:42.748Z,84.73
2018-05-29T00:23:42.922Z,84.34
2018-05-29T00:24:43.098Z,84.83
2018-05-29T00:25:43.269Z,84.73
2018-05-29T00:26:43.451Z,84.25
2018-05-29T00:27:43.621Z,84.06
2018-05-29T00:28:43.804Z,84.16
2018-05-29T00:29:43.998Z,85.11
2018-05-29T00:30:44.180Z,85.02
2018-05-29T00:31:44.350Z,84.54
2018-05-29T00:32:44.526Z,84.34
2018-05-29T00:33:44.699Z,84.16
2018-05-29T00:34:44.884Z,84.25
2018-05-29T00:35:45.067Z,84.06
2018-05-29T00:36:45.252Z,84.06
2018-05-29T00:37:45.435Z,83.86
2018-05-29T00:38:45.604Z,83.67
2018-05-29T00:39:45.787Z,84.54
2018-05-29T00:40:45.961Z,84.16
2018-05-29T00:41:46.140Z,83.86
2018-05-29T00:42:46.325Z,83.67
2018-05-29T00:43:46.509Z,83.86
2018-05-29T00:44:46.695Z,84.54
2018-05-29T00:45:46.868Z,84.06
2018-05-29T00:46:47.052Z,83.96
2018-05-29T00:47:47.234Z,84.06
2018-05-29T00:48:47.424Z,84.06
2018-05-29T00:49:47.601Z,84.34
2018-05-29T00:50:47.784Z,83.86
2018-05-29T00:51:47.965Z,84.34
2018-05-29T00:52:48.141Z,83.86
2018-05-29T00:53:48.326Z,84.06
2018-05-29T00:54:48.497Z,84.16
2018-05-29T00:55:48.666Z,84.16
2018-05-29T00:56:48.847Z,84.16
2018-05-29T00:57:49.027Z,84.06
2018-05-29T00:58:49.211Z,84.06
2018-05-29T00:59:49.389Z,84.44
2018-05-29T01:00:49.566Z,85.21
2018-05-29T01:01:49.751Z,84.73
2018-05-29T01:02:49.939Z,85.21
2018-05-29T01:03:50.116Z,85.27
2018-05-29T01:04:50.298Z,85.46
2018-05-29T01:05:50.467Z,86.04
2018-05-29T01:06:50.645Z,86.22
2018-05-29T01:07:50.818Z,85.75
2018-05-29T01:08:50.995Z,86.22
2018-05-29T01:09:51.175Z,85.94
2018-05-29T01:10:51.360Z,86.04
2018-05-29T01:11:51.535Z,85.75
2018-05-29T01:12:51.716Z,86.52
2018-05-29T01:13:51.896Z,86.22
2018-05-29T01:14:52.070Z,85.94
2018-05-29T01:15:52.247Z,86.13
2018-05-29T01:16:52.419Z,86.22
2018-05-29T01:17:52.604Z,85.36
2018-05-29T01:18:52.783Z,85.36
2018-05-29T01:19:52.960Z,85.17
2018-05-29T01:20:53.140Z,85.55
2018-05-29T01:21:53.323Z,85.36
2018-05-29T01:22:53.504Z,84.30
2018-05-29T01:23:53.679Z,84.21
2018-05-29T01:24:53.860Z,84.59
2018-05-29T01:25:54.042Z,84.69
2018-05-29T01:26:54.218Z,84.21
2018-05-29T01:27:54.390Z,84.21
2018-05-29T01:28:54.567Z,84.50
2018-05-29T01:29:54.746Z,83.83
2018-05-29T01:30:54.940Z,83.92
2018-05-29T01:31:55.112Z,83.83
2018-05-29T01:32:55.291Z,84.11
2018-05-29T01:33:55.473Z,84.21
2018-05-29T01:34:55.643Z,83.83
2018-05-29T01:35:55.823Z,84.01
2018-05-29T01:36:56.005Z,84.30
2018-05-29T01:37:56.179Z,84.11
2018-05-29T01:38:56.367Z,84.11
2018-05-29T01:39:56.538Z,84.01
2018-05-29T01:40:56.726Z,84.01
2018-05-29T01:41:56.904Z,84.01
2018-05-29T01:42:57.073Z,84.59
2018-05-29T01:43:57.252Z,84.01
2018-05-29T01:44:57.437Z,84.01
2018-05-29T01:45:57.624Z,84.01
2018-05-29T01:46:57.800Z,84.30
2018-05-29T01:47:57.973Z,85.07
2018-05-29T01:48:58.144Z,85.07
2018-05-29T01:49:58.328Z,84.98
2018-05-29T01:50:58.502Z,85.27
2018-05-29T01:51:58.672Z,85.89
2018-05-29T01:52:58.859Z,86.09
2018-05-29T01:53:59.028Z,85.99
2018-05-29T01:54:59.213Z,85.89
2018-05-29T01:55:59.392Z,86.38
2018-05-29T01:56:59.578Z,86.57
2018-05-29T01:57:59.760Z,87.15
2018-05-29T01:58:59.992Z,86.95
2018-05-29T02:00:00.135Z,87.34
2018-05-29T02:01:00.326Z,87.82
2018-05-29T02:02:00.505Z,87.62
2018-05-29T02:03:00.684Z,87.82
2018-05-29T02:04:00.866Z,87.72
2018-05-29T02:05:01.036Z,88.01
2018-05-29T02:06:01.218Z,87.72
2018-05-29T02:07:01.393Z,87.77
2018-05-29T02:08:01.562Z,88.16
2018-05-29T02:09:01.745Z,88.97
2018-05-29T02:10:01.939Z,88.97
2018-05-29T02:11:02.115Z,88.16
2018-05-29T02:12:02.284Z,88.73
2018-05-29T02:13:02.469Z,88.45
2018-05-29T02:14:02.645Z,89.31
2018-05-29T02:15:02.828Z,89.02
2018-05-29T02:16:03.004Z,89.40
2018-05-29T02:17:03.174Z,88.93
2018-05-29T02:18:03.349Z,89.31
2018-05-29T02:19:03.526Z,89.31
2018-05-29T02:20:03.699Z,89.31
2018-05-29T02:21:03.882Z,88.93
2018-05-29T02:22:04.058Z,88.54
2018-05-29T02:23:04.232Z,88.93
2018-05-29T02:24:04.410Z,89.02
2018-05-29T02:25:04.589Z,88.54
2018-05-29T02:26:04.762Z,88.54
2018-05-29T02:27:04.950Z,89.02
2018-05-29T02:28:05.123Z,89.02
2018-05-29T02:29:05.304Z,89.02
2018-05-29T02:30:05.477Z,89.31
2018-05-29T02:31:05.657Z,89.22
2018-05-29T02:32:05.832Z,89.12
2018-05-29T02:33:06.010Z,89.31
2018-05-29T02:34:06.192Z,89.60
2018-05-29T02:35:06.376Z,89.60
2018-05-29T02:36:06.567Z,89.31
2018-05-29T02:37:06.753Z,89.12
2018-05-29T02:38:06.930Z,88.83
2018-05-29T02:39:07.109Z,89.60
2018-05-29T02:40:07.291Z,89.69
2018-05-29T02:41:07.950Z,89.69
2018-05-29T02:42:07.671Z,89.60
2018-05-29T02:43:07.850Z,89.60
2018-05-29T02:44:08.030Z,89.12
2018-05-29T02:45:08.204Z,89.50
2018-05-29T02:46:08.382Z,89.22
2018-05-29T02:47:08.563Z,89.69
2018-05-29T02:48:08.738Z,88.93
2018-05-29T02:49:08.923Z,89.31
2018-05-29T02:50:09.089Z,89.50
2018-05-29T02:51:09.272Z,88.93
2018-05-29T02:52:09.444Z,89.60
2018-05-29T02:53:09.618Z,88.98
2018-05-29T02:54:09.801Z,88.88
2018-05-29T02:55:09.983Z,89.55
2018-05-29T02:56:10.157Z,89.26
2018-05-29T02:57:10.333Z,89.75
2018-05-29T02:58:10.510Z,89.94
2018-05-29T02:59:10.703Z,90.32
2018-05-29T03:00:10.869Z,90.32
2018-05-29T03:01:11.046Z,90.61
2018-05-29T03:02:11.214Z,90.32
2018-05-29T03:03:11.394Z,90.42
2018-05-29T03:04:11.571Z,90.90
2018-05-29T03:05:11.748Z,90.90
2018-05-29T03:06:11.936Z,90.99
2018-05-29T03:07:12.105Z,90.32
2018-05-29T03:08:12.276Z,90.22
2018-05-29T03:09:12.450Z,90.52
2018-05-29T03:10:12.628Z,90.42
2018-05-29T03:11:12.809Z,90.13
2018-05-29T03:12:12.983Z,89.75
2018-05-29T03:13:13.168Z,89.84
2018-05-29T03:14:13.343Z,90.22
2018-05-29T03:15:13.519Z,90.32
2018-05-29T03:16:13.699Z,90.32
2018-05-29T03:17:13.885Z,90.22
2018-05-29T03:18:14.056Z,90.22
2018-05-29T03:19:14.231Z,90.52
2018-05-29T03:20:14.412Z,90.32
2018-05-29T03:21:14.583Z,90.22
2018-05-29T03:22:14.765Z,90.22
2018-05-29T03:23:14.938Z,89.94
2018-05-29T03:24:15.107Z,89.94
2018-05-29T03:25:15.288Z,90.42
2018-05-29T03:26:15.461Z,90.32
2018-05-29T03:27:15.642Z,90.32
2018-05-29T03:28:15.828Z,90.13
2018-05-29T03:29:16.004Z,90.32
2018-05-29T03:30:16.356Z,90.13
2018-05-29T03:31:16.623Z,89.65
2018-05-29T03:32:17.149Z,89.84
2018-05-29T03:33:20.774Z,90.13
2018-05-29T03:34:16.869Z,90.03
2018-05-29T03:35:17.039Z,90.22
2018-05-29T03:36:17.217Z,90.08
2018-05-29T03:37:17.398Z,90.03
2018-05-29T03:38:17.585Z,89.31
2018-05-29T03:39:17.766Z,89.46
2018-05-29T03:40:17.940Z,89.60
2018-05-29T03:41:18.121Z,89.46
2018-05-29T03:42:18.329Z,89.60
2018-05-29T03:43:18.487Z,88.93
2018-05-29T03:44:18.680Z,89.02
2018-05-29T03:45:18.856Z,89.02
2018-05-29T03:46:19.033Z,89.02
2018-05-29T03:47:19.206Z,88.93
2018-05-29T03:48:19.381Z,88.54
2018-05-29T03:49:19.560Z,88.93
2018-05-29T03:50:19.737Z,88.54
2018-05-29T03:51:19.955Z,89.31
2018-05-29T03:52:20.088Z,88.54
2018-05-29T03:53:20.269Z,88.93
2018-05-29T03:54:20.467Z,88.64
2018-05-29T03:55:20.643Z,88.73
2018-05-29T03:56:20.831Z,88.73
2018-05-29T03:57:21.009Z,88.45
2018-05-29T03:58:21.184Z,88.93
2018-05-29T03:59:21.358Z,89.12
2018-05-29T04:00:21.527Z,89.02
2018-05-29T04:01:27.885Z,89.12
2018-05-29T04:02:23.401Z,89.12
2018-05-29T04:03:26.275Z,88.25
2018-05-29T04:04:26.666Z,88.73
2018-05-29T04:05:22.415Z,89.22
2018-05-29T04:06:22.588Z,89.40
2018-05-29T04:07:22.761Z,89.02
2018-05-29T04:08:22.944Z,89.79
2018-05-29T04:09:23.145Z,89.26
2018-05-29T04:10:23.310Z,89.65
2018-05-29T04:11:23.487Z,90.13
2018-05-29T04:12:23.673Z,90.13
2018-05-29T04:13:23.848Z,89.84
2018-05-29T04:14:24.023Z,90.03
2018-05-29T04:15:24.212Z,89.50
2018-05-29T04:16:24.392Z,89.40
2018-05-29T04:17:24.571Z,88.83
2018-05-29T04:18:24.749Z,88.83
2018-05-29T04:19:24.933Z,88.35
2018-05-29T04:20:25.111Z,88.35
2018-05-29T04:21:25.317Z,88.93
2018-05-29T04:22:25.482Z,88.78
2018-05-29T04:23:25.668Z,88.30
2018-05-29T04:24:25.850Z,88.78
2018-05-29T04:25:26.032Z,88.59
2018-05-29T04:26:26.219Z,88.49
2018-05-29T04:27:26.410Z,88.39
2018-05-29T04:28:26.659Z,87.92
2018-05-29T04:29:26.768Z,88.01
2018-05-29T04:30:26.951Z,87.92
2018-05-29T04:31:27.135Z,87.24
2018-05-29T04:32:27.347Z,86.85
2018-05-29T04:33:27.546Z,87.05
2018-05-29T04:34:27.739Z,87.53
2018-05-29T04:35:27.921Z,87.05
2018-05-29T04:36:28.118Z,86.95
2018-05-29T04:37:28.299Z,86.47
2018-05-29T04:38:28.477Z,87.15
2018-05-29T04:39:28.865Z,86.38
2018-05-29T04:40:28.771Z,86.76
2018-05-29T04:41:30.445Z,86.18
2018-05-29T04:42:31.964Z,86.57
2018-05-29T04:43:30.640Z,86.61
2018-05-29T04:44:32.360Z,86.13
2018-05-29T04:45:31.351Z,86.22
2018-05-29T04:46:32.585Z,85.36
2018-05-29T04:47:31.924Z,85.75
2018-05-29T04:48:31.268Z,85.55
2018-05-29T04:49:32.113Z,84.98
2018-05-29T04:50:30.551Z,85.11
2018-05-29T04:51:31.433Z,84.54
2018-05-29T04:52:32.441Z,85.17
2018-05-29T04:53:34.108Z,85.17
2018-05-29T04:54:34.955Z,85.21
2018-05-29T04:55:33.577Z,84.54
2018-05-29T04:56:35.543Z,84.44
2018-05-29T04:57:32.673Z,84.44
2018-05-29T04:58:33.891Z,84.25
2018-05-29T04:59:31.872Z,83.52
2018-05-29T05:00:32.062Z,83.72
2018-05-29T05:01:32.238Z,83.81
2018-05-29T05:02:32.424Z,83.04
2018-05-29T05:03:32.598Z,82.17
2018-05-29T05:04:32.768Z,82.37
2018-05-29T05:05:32.952Z,82.46
2018-05-29T05:06:33.129Z,83.08
2018-05-29T05:07:33.311Z,82.70
2018-05-29T05:08:33.503Z,81.63
2018-05-29T05:09:33.681Z,81.16
2018-05-29T05:10:33.876Z,80.38
2018-05-29T05:11:34.049Z,80.38
2018-05-29T05:12:34.240Z,80.68
2018-05-29T05:13:34.429Z,80.91
2018-05-29T05:14:34.612Z,80.52
2018-05-29T05:15:34.800Z,80.91
2018-05-29T05:16:34.977Z,80.71
2018-05-29T05:17:35.156Z,80.62
2018-05-29T05:18:35.345Z,79.75
2018-05-29T05:19:35.523Z,79.56
2018-05-29T05:20:35.706Z,79.27
2018-05-29T05:21:35.882Z,79.31
2018-05-29T05:22:36.091Z,78.83
2018-05-29T05:23:36.328Z,78.44
2018-05-29T05:24:36.458Z,78.34
2018-05-29T05:25:36.643Z,78.92
2018-05-29T05:26:41.157Z,78.83
2018-05-29T05:27:38.964Z,78.25
2018-05-29T05:28:37.182Z,78.63
2018-05-29T05:29:37.356Z,78.25
2018-05-29T05:30:37.541Z,77.86
2018-05-29T05:31:37.720Z,77.67
2018-05-29T05:32:37.895Z,77.81
2018-05-29T05:33:38.073Z,77.61
2018-05-29T05:34:38.260Z,77.61
2018-05-29T05:35:38.460Z,77.90
2018-05-29T05:36:38.636Z,77.26
2018-05-29T05:37:38.826Z,77.17
2018-05-29T05:38:39.000Z,77.07
2018-05-29T05:39:39.181Z,76.98
2018-05-29T05:40:39.368Z,76.50
2018-05-29T05:41:39.547Z,77.07
2018-05-29T05:42:39.734Z,76.72
2018-05-29T05:43:39.909Z,76.30
2018-05-29T05:44:40.085Z,76.05
2018-05-29T05:45:40.266Z,75.85
2018-05-29T05:46:40.437Z,76.15
2018-05-29T05:47:40.618Z,75.95
2018-05-29T05:48:41.325Z,76.15
2018-05-29T05:49:43.510Z,75.76
2018-05-29T05:50:44.368Z,75.95
2018-05-29T05:51:41.236Z,76.95
2018-05-29T05:52:41.420Z,76.09
2018-05-29T05:53:41.590Z,75.41
2018-05-29T05:54:41.765Z,75.12
2018-05-29T05:55:41.948Z,74.38
2018-05-29T05:56:42.129Z,74.10
2018-05-29T05:57:42.305Z,73.71
2018-05-29T05:58:42.492Z,73.42
2018-05-29T05:59:42.669Z,74.04
2018-05-29T06:00:42.851Z,73.46
2018-05-29T06:01:43.037Z,72.49
2018-05-29T06:02:43.218Z,71.91
2018-05-29T06:03:43.397Z,71.75
2018-05-29T06:04:43.580Z,71.46
2018-05-29T06:05:43.759Z,70.98
2018-05-29T06:06:44.009Z,70.40
2018-05-29T06:07:44.064Z,70.14
2018-05-29T06:08:44.243Z,70.53
2018-05-29T06:09:44.422Z,69.95
2018-05-29T06:10:44.601Z,70.34
2018-05-29T06:11:44.779Z,69.66
2018-05-29T06:12:44.961Z,69.59
2018-05-29T06:13:45.151Z,69.69
2018-05-29T06:14:45.342Z,69.31
2018-05-29T06:15:45.531Z,67.98
2018-05-29T06:16:45.718Z,68.08
2018-05-29T06:17:45.901Z,68.08
2018-05-29T06:18:46.084Z,67.69
2018-05-29T06:19:46.270Z,67.34
2018-05-29T06:20:46.467Z,66.17
2018-05-29T06:21:46.661Z,65.53
2018-05-29T06:22:46.837Z,63.91
2018-05-29T06:23:47.030Z,63.07
2018-05-29T06:24:47.211Z,63.01
2018-05-29T06:25:47.406Z,61.77
2018-05-29T06:26:47.587Z,60.83
2018-05-29T06:27:47.774Z,59.50
2018-05-29T06:28:47.961Z,58.17
2018-05-29T06:29:48.156Z,57.51
2018-05-29T06:30:48.355Z,57.06
2018-05-29T06:31:48.544Z,56.21
2018-05-29T06:32:48.770Z,55.33
2018-05-29T06:33:48.922Z,53.70
2018-05-29T06:34:49.118Z,52.48
2018-05-29T06:35:49.308Z,51.73
2018-05-29T06:36:49.497Z,52.02
2018-05-29T06:37:49.687Z,50.68
2018-05-29T06:38:49.889Z,49.53
2018-05-29T06:39:50.075Z,48.60
2018-05-29T06:40:50.271Z,48.92
2018-05-29T06:41:50.457Z,47.94
2018-05-29T06:42:50.648Z,46.86
2018-05-29T06:43:50.840Z,46.89
2018-05-29T06:44:51.081Z,46.89
2018-05-29T06:45:51.262Z,47.28
2018-05-29T06:46:51.446Z,46.23
2018-05-29T06:47:51.635Z,45.07
2018-05-29T06:48:51.838Z,44.68
2018-05-29T06:49:52.015Z,44.68
2018-05-29T06:50:52.194Z,44.78
2018-05-29T06:51:52.387Z,44.51
2018-05-29T06:52:52.573Z,43.65
2018-05-29T06:53:52.772Z,43.57
2018-05-29T06:54:52.972Z,43.57
2018-05-29T06:55:53.167Z,42.32
2018-05-29T06:56:53.350Z,43.10
2018-05-29T06:57:53.542Z,43.10
2018-05-29T06:58:53.761Z,41.27
2018-05-29T06:59:53.956Z,41.64
2018-05-29T07:00:54.151Z,40.88
2018-05-29T07:01:54.355Z,40.70
2018-05-29T07:02:54.547Z,40.69
2018-05-29T07:03:54.946Z,39.60
2018-05-29T07:04:54.947Z,39.31
2018-05-29T07:05:55.139Z,40.88
2018-05-29T07:06:55.329Z,39.92
2018-05-29T07:07:55.516Z,39.47
2018-05-29T07:08:55.706Z,38.99
2018-05-29T07:09:55.912Z,38.49
2018-05-29T07:10:56.101Z,37.24
2018-05-29T07:11:56.298Z,37.34
2018-05-29T07:12:56.559Z,37.26
2018-05-29T07:13:56.728Z,36.88
2018-05-29T07:14:56.913Z,37.07
2018-05-29T07:15:57.106Z,36.58
2018-05-29T07:16:57.301Z,36.11
2018-05-29T07:17:57.488Z,34.84
2018-05-29T07:18:57.679Z,34.56
2018-05-29T07:19:57.882Z,34.88
2018-05-29T07:20:58.066Z,33.31
2018-05-29T07:21:58.259Z,34.56
2018-05-29T07:22:58.631Z,34.10
2018-05-29T07:23:58.606Z,33.52
2018-05-29T07:24:58.936Z,32.95
2018-05-29T07:25:59.015Z,32.67
2018-05-29T07:26:59.263Z,31.20
2018-05-29T07:27:59.343Z,30.23
2018-05-29T07:28:59.537Z,29.94
2018-05-29T07:29:59.729Z,30.62
2018-05-29T07:30:59.920Z,29.24
2018-05-29T07:32:00.121Z,29.85
2018-05-29T07:33:00.319Z,29.83
2018-05-29T07:34:00.519Z,30.13
2018-05-29T07:35:00.718Z,30.73
2018-05-29T07:36:00.929Z,29.47
2018-05-29T07:37:01.427Z,29.68
2018-05-29T07:38:01.348Z,28.89
2018-05-29T07:39:02.471Z,29.28
2018-05-29T07:40:01.720Z,29.98
2018-05-29T07:41:01.908Z,29.38
2018-05-29T07:42:02.211Z,28.99
2018-05-29T07:43:02.723Z,29.19
2018-05-29T07:44:02.421Z,29.30
2018-05-29T07:45:04.454Z,28.22
2018-05-29T07:46:02.807Z,27.73
2018-05-29T07:47:02.997Z,28.23
2018-05-29T07:48:03.198Z,27.92
2018-05-29T07:49:05.148Z,27.42
2018-05-29T07:50:04.130Z,27.23
2018-05-29T07:51:03.753Z,27.14
2018-05-29T07:52:04.018Z,26.95
2018-05-29T07:53:04.158Z,27.17
2018-05-29T07:54:04.361Z,26.99
2018-05-29T07:55:04.871Z,26.61
2018-05-29T07:56:05.406Z,26.32
2018-05-29T07:57:06.421Z,25.54
2018-05-29T07:58:05.010Z,25.43
2018-05-29T07:59:05.203Z,24.44
2018-05-29T08:00:05.403Z,24.93
2018-05-29T08:01:05.599Z,25.29
2018-05-29T08:02:05.843Z,25.40
2018-05-29T08:03:05.915Z,25.52
2018-05-29T08:04:06.108Z,24.93
2018-05-29T08:05:06.319Z,25.04
2018-05-29T08:06:06.508Z,24.74
2018-05-29T08:07:06.708Z,25.34
2018-05-29T08:08:06.898Z,25.23
2018-05-29T08:09:07.085Z,24.54
2018-05-29T08:10:07.290Z,25.34
2018-05-29T08:11:07.489Z,24.15
2018-05-29T08:12:07.672Z,23.37
2018-05-29T08:13:07.874Z,23.49
2018-05-29T08:14:08.072Z,23.08
2018-05-29T08:15:08.263Z,23.88
2018-05-29T08:16:08.457Z,23.37
2018-05-29T08:17:08.650Z,23.46
2018-05-29T08:18:08.851Z,24.36
2018-05-29T08:19:09.041Z,24.44
2018-05-29T08:20:09.225Z,24.06
2018-05-29T08:21:09.426Z,23.99
2018-05-29T08:22:09.619Z,23.50
2018-05-29T08:23:09.828Z,22.41
2018-05-29T08:24:10.017Z,23.10
2018-05-29T08:25:10.218Z,23.90
2018-05-29T08:26:10.415Z,23.49
2018-05-29T08:27:10.616Z,23.30
2018-05-29T08:28:10.861Z,22.50
2018-05-29T08:29:11.008Z,22.71
2018-05-29T08:30:11.201Z,23.08
2018-05-29T08:31:11.395Z,23.68
2018-05-29T08:32:11.591Z,24.29
2018-05-29T08:33:11.782Z,23.08
2018-05-29T08:34:11.980Z,23.30
2018-05-29T08:35:12.181Z,23.39
2018-05-29T08:36:12.377Z,23.11
2018-05-29T08:37:12.574Z,23.99
2018-05-29T08:38:12.769Z,23.08
2018-05-29T08:39:12.975Z,23.69
2018-05-29T08:40:13.176Z,24.40
2018-05-29T08:41:13.364Z,24.36
2018-05-29T08:42:13.574Z,24.65
2018-05-29T08:43:13.762Z,24.65
2018-05-29T08:44:13.976Z,25.15
2018-05-29T08:45:14.177Z,24.55
2018-05-29T08:46:14.376Z,23.35
2018-05-29T08:47:14.584Z,23.95
2018-05-29T08:48:14.781Z,24.27
2018-05-29T08:49:14.974Z,24.05
2018-05-29T08:50:15.171Z,23.85
2018-05-29T08:51:15.373Z,23.87
2018-05-29T08:52:15.568Z,23.99
2018-05-29T08:53:15.758Z,23.46
2018-05-29T08:54:15.961Z,24.25
2018-05-29T08:55:16.155Z,24.66
2018-05-29T08:56:16.345Z,23.96
2018-05-29T08:57:16.612Z,24.75
2018-05-29T08:58:16.764Z,24.93
2018-05-29T08:59:16.957Z,24.55
2018-05-29T09:00:17.150Z,25.61
2018-05-29T09:01:17.346Z,25.99
2018-05-29T09:02:17.534Z,25.98
2018-05-29T09:03:17.760Z,25.29
2018-05-29T09:04:17.957Z,25.50
2018-05-29T09:05:18.138Z,25.99
2018-05-29T09:06:18.348Z,26.88
2018-05-29T09:07:18.528Z,27.06
2018-05-29T09:08:18.726Z,27.33
2018-05-29T09:09:18.923Z,28.02
2018-05-29T09:10:19.112Z,27.82
2018-05-29T09:11:19.309Z,27.83
2018-05-29T09:12:19.496Z,27.64
2018-05-29T09:13:19.695Z,28.03
2018-05-29T09:14:19.892Z,26.93
2018-05-29T09:15:20.155Z,26.84
2018-05-29T09:16:20.373Z,26.17
2018-05-29T09:17:20.509Z,25.79
2018-05-29T09:18:21.016Z,26.02
2018-05-29T09:19:20.837Z,24.95
2018-05-29T09:20:22.598Z,24.73
2018-05-29T09:21:23.017Z,23.74
2018-05-29T09:22:21.345Z,24.25
2018-05-29T09:23:21.540Z,25.05
2018-05-29T09:24:21.733Z,24.45
2018-05-29T09:25:21.934Z,24.33
2018-05-29T09:26:22.135Z,24.16
2018-05-29T09:27:22.321Z,24.37
2018-05-29T09:28:22.561Z,23.97
2018-05-29T09:29:22.715Z,24.62
2018-05-29T09:30:23.078Z,24.41
2018-05-29T09:31:23.126Z,25.12
2018-05-29T09:32:23.451Z,25.42
2018-05-29T09:33:23.479Z,25.01
2018-05-29T09:34:23.672Z,24.51
2018-05-29T09:35:23.923Z,25.42
2018-05-29T09:36:24.075Z,25.63
2018-05-29T09:37:24.323Z,24.74
2018-05-29T09:38:24.478Z,24.33
2018-05-29T09:39:24.677Z,24.35
2018-05-29T09:40:24.869Z,24.26
2018-05-29T09:41:25.068Z,23.87
2018-05-29T09:42:27.057Z,23.77
2018-05-29T09:43:26.839Z,24.87
2018-05-29T09:44:25.621Z,24.38
2018-05-29T09:45:26.062Z,23.28
2018-05-29T09:46:26.734Z,23.49
2018-05-29T09:47:26.225Z,22.69
2018-05-29T09:48:26.490Z,23.60
2018-05-29T09:49:27.074Z,23.47
2018-05-29T09:50:26.729Z,23.19
2018-05-29T09:51:26.922Z,21.89
2018-05-29T09:52:27.215Z,23.35
2018-05-29T09:53:27.252Z,23.24
2018-05-29T09:54:27.449Z,23.64
2018-05-29T09:55:27.658Z,24.02
2018-05-29T09:56:32.900Z,23.91
2018-05-29T09:57:28.273Z,25.29
2018-05-29T09:58:28.273Z,25.98
2018-05-29T09:59:28.476Z,24.57
2018-05-29T10:00:28.685Z,24.87
2018-05-29T10:01:28.878Z,26.63
2018-05-29T10:02:29.111Z,27.00
2018-05-29T10:03:29.310Z,27.68
2018-05-29T10:04:29.519Z,28.18
2018-05-29T10:05:29.708Z,27.78
2018-05-29T10:06:29.923Z,27.78
2018-05-29T10:07:30.109Z,29.64
2018-05-29T10:08:30.297Z,30.33
2018-05-29T10:09:30.484Z,30.90
2018-05-29T10:10:30.673Z,30.88
2018-05-29T10:11:30.865Z,31.46
2018-05-29T10:12:31.079Z,31.53
2018-05-29T10:13:31.274Z,32.21
2018-05-29T10:14:31.465Z,31.30
2018-05-29T10:15:31.668Z,31.62
2018-05-29T10:16:31.863Z,33.37
2018-05-29T10:17:32.050Z,33.28
2018-05-29T10:18:32.239Z,32.09
2018-05-29T10:19:32.440Z,30.91
2018-05-29T10:20:32.631Z,31.50
2018-05-29T10:21:32.820Z,31.30
2018-05-29T10:22:33.008Z,31.30
2018-05-29T10:23:33.203Z,31.99
2018-05-29T10:24:33.399Z,31.99
2018-05-29T10:25:33.592Z,33.36
2018-05-29T10:26:33.782Z,33.64
2018-05-29T10:27:33.974Z,33.34
2018-05-29T10:28:34.161Z,33.31
2018-05-29T10:29:34.349Z,33.01
2018-05-29T10:30:34.544Z,34.75
2018-05-29T10:31:34.735Z,35.03
2018-05-29T10:32:34.922Z,35.63
2018-05-29T10:33:35.121Z,37.72
2018-05-29T10:34:35.308Z,38.88
2018-05-29T10:35:35.509Z,39.29
2018-05-29T10:36:35.690Z,38.52
2018-05-29T10:37:35.878Z,38.05
2018-05-29T10:38:36.077Z,37.67
2018-05-29T10:39:36.264Z,37.57
2018-05-29T10:40:36.673Z,37.59
2018-05-29T10:41:36.575Z,38.01
2018-05-29T10:42:36.761Z,37.81
2018-05-29T10:43:36.963Z,38.01
2018-05-29T10:44:37.135Z,38.78
2018-05-29T10:45:37.325Z,38.07
2018-05-29T10:46:37.520Z,37.38
2018-05-29T10:47:37.708Z,36.49
2018-05-29T10:48:37.895Z,35.99
2018-05-29T10:49:38.085Z,36.26
2018-05-29T10:50:38.284Z,35.87
2018-05-29T10:51:38.534Z,36.07
2018-05-29T10:52:38.656Z,35.77
2018-05-29T10:53:38.839Z,36.57
2018-05-29T10:54:39.024Z,36.10
2018-05-29T10:55:39.212Z,34.44
2018-05-29T10:56:39.400Z,34.44
2018-05-29T10:57:39.591Z,34.51
2018-05-29T10:58:39.802Z,35.77
2018-05-29T10:59:40.005Z,35.78
2018-05-29T11:00:40.204Z,35.99
2018-05-29T11:01:40.393Z,36.08
2018-05-29T11:02:40.582Z,36.74
2018-05-29T11:03:40.764Z,37.62
2018-05-29T11:04:40.962Z,37.42
2018-05-29T11:05:41.139Z,37.92
2018-05-29T11:06:41.326Z,37.82
2018-05-29T11:07:41.514Z,36.93
2018-05-29T11:08:42.698Z,37.29
2018-05-29T11:09:41.888Z,37.60
2018-05-29T11:10:43.404Z,37.52
2018-05-29T11:11:42.449Z,36.34
2018-05-29T11:12:42.734Z,36.34
2018-05-29T11:13:42.837Z,36.93
2018-05-29T11:14:42.770Z,36.07
2018-05-29T11:15:43.322Z,36.95
2018-05-29T11:16:43.514Z,37.32
2018-05-29T11:17:44.889Z,38.92
2018-05-29T11:18:43.466Z,38.40
2018-05-29T11:19:43.898Z,37.74
2018-05-29T11:20:43.841Z,37.54
2018-05-29T11:21:44.172Z,37.54
2018-05-29T11:22:44.289Z,35.99
2018-05-29T11:23:44.680Z,36.38
2018-05-29T11:24:44.859Z,37.95
2018-05-29T11:25:44.691Z,39.72
2018-05-29T11:26:44.886Z,38.56
2018-05-29T11:27:45.072Z,38.54
2018-05-29T11:28:45.257Z,36.77
2018-05-29T11:29:45.450Z,37.16
2018-05-29T11:30:45.640Z,37.26
2018-05-29T11:31:45.834Z,37.93
2018-05-29T11:32:46.027Z,36.95
2018-05-29T11:33:46.211Z,36.55
2018-05-29T11:34:46.395Z,36.07
2018-05-29T11:35:46.596Z,35.28
2018-05-29T11:36:46.792Z,36.07
2018-05-29T11:37:47.399Z,36.85
2018-05-29T11:38:47.120Z,38.01
2018-05-29T11:39:47.303Z,38.21
2018-05-29T11:40:47.501Z,37.62
2018-05-29T11:41:47.698Z,38.13
2018-05-29T11:42:47.890Z,38.40
2018-05-29T11:43:48.104Z,38.31
2018-05-29T11:44:51.309Z,39.00
2018-05-29T11:45:48.520Z,38.01
2018-05-29T11:46:48.609Z,38.11
2018-05-29T11:47:48.766Z,37.52
2018-05-29T11:48:49.065Z,39.19
2018-05-29T11:49:49.200Z,39.19
2018-05-29T11:50:49.311Z,40.17
2018-05-29T11:51:49.413Z,40.08
2018-05-29T11:52:49.703Z,39.17
2018-05-29T11:53:49.746Z,38.11
2018-05-29T11:54:50.032Z,40.94
2018-05-29T11:55:50.439Z,39.86
2018-05-29T11:56:50.309Z,39.06
2018-05-29T11:57:50.573Z,38.96
2018-05-29T11:58:50.647Z,38.96
2018-05-29T11:59:52.247Z,39.27
2018-05-29T12:00:50.966Z,40.45
2018-05-29T12:01:51.212Z,41.45
2018-05-29T12:02:51.374Z,41.74
2018-05-29T12:03:51.539Z,41.67
2018-05-29T12:04:52.108Z,39.78
2018-05-29T12:05:51.921Z,39.09
2018-05-29T12:06:52.106Z,38.90
2018-05-29T12:07:52.306Z,40.06
2018-05-29T12:08:52.487Z,39.17
2018-05-29T12:09:52.682Z,38.39
2018-05-29T12:10:52.864Z,39.06
2018-05-29T12:11:53.391Z,40.03
2018-05-29T12:12:53.235Z,41.53
2018-05-29T12:13:53.537Z,40.64
2018-05-29T12:14:53.599Z,41.35
2018-05-29T12:15:53.784Z,40.84
2018-05-29T12:16:53.990Z,39.66
2018-05-29T12:17:54.159Z,40.56
2018-05-29T12:18:54.350Z,41.55
2018-05-29T12:19:54.535Z,41.67
2018-05-29T12:20:54.730Z,39.31
2018-05-29T12:21:54.933Z,38.03
2018-05-29T12:22:55.126Z,37.93
2018-05-29T12:23:55.339Z,39.01
2018-05-29T12:24:55.524Z,38.21
2018-05-29T12:25:55.723Z,37.90
2018-05-29T12:26:55.915Z,37.99
2018-05-29T12:27:56.107Z,38.29
2018-05-29T12:28:56.296Z,38.88
2018-05-29T12:29:56.487Z,39.07
2018-05-29T12:30:56.708Z,38.88
2018-05-29T12:31:56.882Z,40.06
2018-05-29T12:32:57.092Z,39.76
2018-05-29T12:33:57.293Z,40.06
2018-05-29T12:34:57.472Z,40.23
2018-05-29T12:35:57.660Z,40.84
2018-05-29T12:36:57.852Z,40.03
2018-05-29T12:37:58.040Z,40.63
2018-05-29T12:38:58.234Z,40.70
2018-05-29T12:39:58.424Z,40.01
2018-05-29T12:40:58.619Z,40.01
2018-05-29T12:41:58.813Z,40.11
2018-05-29T12:42:59.007Z,40.78
2018-05-29T12:43:59.213Z,40.78
2018-05-29T12:44:59.592Z,42.74
2018-05-29T12:45:59.590Z,43.43
2018-05-29T12:46:59.783Z,44.09
2018-05-29T12:47:59.966Z,46.44
2018-05-29T12:49:00.153Z,44.78
2018-05-29T12:50:00.334Z,45.27
2018-05-29T12:51:00.555Z,51.12
2018-05-29T12:52:00.708Z,53.45
2018-05-29T12:53:00.893Z,56.65
2018-05-29T12:54:01.074Z,57.21
2018-05-29T12:55:01.260Z,58.75